createdAt,value
2022-12-17T00:02:31.480Z,13.50
2022-12-17T00:05:16.691Z,13.41
2022-12-17T00:08:03.292Z,13.30
2022-12-17T00:10:48.829Z,13.17
2022-12-17T00:13:41.559Z,13.11
2022-12-17T00:16:26.993Z,12.99
2022-12-17T00:19:12.692Z,12.97
2022-12-17T00:21:58.208Z,12.93
2022-12-17T00:24:43.416Z,12.77
2022-12-17T00:27:29.015Z,12.93
2022-12-17T00:30:14.220Z,12.92
2022-12-17T00:32:59.904Z,12.90
2022-12-17T00:35:45.585Z,12.90
2022-12-17T00:38:37.269Z,12.86
2022-12-17T00:41:23.386Z,12.75
2022-12-17T00:44:08.735Z,12.75
2022-12-17T00:46:54.000Z,12.82
2022-12-17T00:49:39.625Z,12.77
2022-12-17T00:52:38.969Z,12.75
2022-12-17T00:55:24.610Z,12.66
2022-12-17T00:58:14.294Z,12.66
2022-12-17T01:01:00.324Z,12.59
2022-12-17T01:03:46.356Z,12.64
2022-12-17T01:06:31.516Z,12.71
2022-12-17T01:09:17.141Z,12.76
2022-12-17T01:12:02.720Z,12.79
2022-12-17T01:14:47.922Z,12.81
2022-12-17T01:17:32.981Z,12.79
2022-12-17T01:20:18.518Z,12.76
2022-12-17T01:23:04.627Z,12.76
2022-12-17T01:25:50.247Z,12.65
2022-12-17T01:28:44.152Z,12.86
2022-12-17T01:31:34.673Z,12.86
2022-12-17T01:34:20.767Z,12.81
2022-12-17T01:37:06.816Z,12.81
2022-12-17T01:39:52.166Z,12.76
2022-12-17T01:42:37.620Z,12.78
2022-12-17T01:45:23.676Z,12.77
2022-12-17T01:48:11.994Z,12.76
2022-12-17T01:51:04.672Z,12.71
2022-12-17T01:53:54.725Z,12.73
2022-12-17T01:56:42.715Z,12.69
2022-12-17T01:59:28.857Z,12.70
2022-12-17T02:02:14.426Z,12.59
2022-12-17T02:05:00.355Z,12.52
2022-12-17T02:07:54.740Z,12.57
2022-12-17T02:11:04.814Z,12.49
2022-12-17T02:13:54.194Z,12.33
2022-12-17T02:17:12.592Z,12.40
2022-12-17T02:20:03.707Z,12.50
2022-12-17T02:23:13.940Z,12.50
2022-12-17T02:26:00.744Z,12.19
2022-12-17T02:28:46.750Z,12.40
2022-12-17T02:31:33.765Z,12.35
2022-12-17T02:34:19.321Z,12.33
2022-12-17T02:37:06.287Z,12.40
2022-12-17T02:39:51.791Z,12.38
2022-12-17T02:42:42.728Z,12.45
2022-12-17T02:45:28.964Z,12.49
2022-12-17T02:48:15.390Z,12.51
2022-12-17T02:51:01.447Z,12.61
2022-12-17T02:53:46.992Z,12.68
2022-12-17T02:56:32.276Z,12.59
2022-12-17T02:59:17.640Z,12.70
2022-12-17T03:02:03.169Z,12.66
2022-12-17T03:04:48.517Z,12.63
2022-12-17T03:07:34.031Z,12.60
2022-12-17T03:10:19.196Z,12.55
2022-12-17T03:13:04.918Z,12.55
2022-12-17T03:15:52.613Z,12.49
2022-12-17T03:18:51.530Z,12.52
2022-12-17T03:21:37.507Z,12.45
2022-12-17T03:24:23.275Z,12.43
2022-12-17T03:27:08.633Z,12.26
2022-12-17T03:29:54.085Z,12.28
2022-12-17T03:32:39.553Z,12.23
2022-12-17T03:35:24.964Z,12.24
2022-12-17T03:38:10.419Z,12.21
2022-12-17T03:40:56.014Z,12.15
2022-12-17T03:43:41.538Z,12.14
2022-12-17T03:46:27.161Z,12.09
2022-12-17T03:49:12.631Z,12.00
2022-12-17T03:51:58.226Z,11.98
2022-12-17T03:54:43.687Z,11.87
2022-12-17T03:57:29.202Z,11.88
2022-12-17T04:00:14.880Z,11.79
2022-12-17T04:03:00.352Z,11.81
2022-12-17T04:05:45.956Z,11.76
2022-12-17T04:08:31.517Z,11.76
2022-12-17T04:11:16.970Z,11.82
2022-12-17T04:14:02.466Z,11.82
2022-12-17T04:16:47.809Z,11.89
2022-12-17T04:19:33.477Z,11.93
2022-12-17T04:22:18.853Z,12.09
2022-12-17T04:25:04.383Z,12.13
2022-12-17T04:27:50.064Z,12.11
2022-12-17T04:30:35.631Z,12.17
2022-12-17T04:33:21.022Z,12.06
2022-12-17T04:36:06.571Z,12.28
2022-12-17T04:38:52.010Z,12.30
2022-12-17T04:41:37.804Z,12.33
2022-12-17T04:44:23.180Z,12.38
2022-12-17T04:47:08.808Z,12.39
2022-12-17T04:49:54.233Z,12.45
2022-12-17T04:52:39.919Z,12.45
2022-12-17T04:55:25.417Z,12.49
2022-12-17T04:58:17.783Z,12.52
2022-12-17T05:01:02.935Z,12.59
2022-12-17T05:03:48.574Z,12.60
2022-12-17T05:06:34.093Z,12.61
2022-12-17T05:09:19.683Z,12.58
2022-12-17T05:12:05.089Z,12.54
2022-12-17T05:14:50.550Z,12.50
2022-12-17T05:17:36.006Z,12.48
2022-12-17T05:20:22.114Z,12.47
2022-12-17T05:23:07.525Z,12.43
2022-12-17T05:25:53.219Z,12.45
2022-12-17T05:28:38.818Z,12.40
2022-12-17T05:31:24.484Z,12.36
2022-12-17T05:34:10.022Z,12.27
2022-12-17T05:36:55.948Z,12.21
2022-12-17T05:39:41.473Z,12.21
2022-12-17T05:42:27.124Z,12.20
2022-12-17T05:45:12.495Z,12.20
2022-12-17T05:47:58.027Z,12.18
2022-12-17T05:50:43.501Z,12.19
2022-12-17T05:53:29.055Z,12.17
2022-12-17T05:56:14.501Z,12.15
2022-12-17T05:59:00.057Z,12.25
2022-12-17T06:01:45.571Z,12.12
2022-12-17T06:04:31.182Z,12.30
2022-12-17T06:07:16.559Z,12.35
2022-12-17T06:10:02.033Z,12.37
2022-12-17T06:12:47.556Z,12.37
2022-12-17T06:15:33.019Z,12.28
2022-12-17T06:18:18.474Z,12.38
2022-12-17T06:21:05.171Z,12.33
2022-12-17T06:23:50.558Z,12.30
2022-12-17T06:26:35.876Z,12.21
2022-12-17T06:29:21.393Z,12.16
2022-12-17T06:32:07.061Z,12.15
2022-12-17T06:34:52.562Z,12.06
2022-12-17T06:37:38.092Z,12.06
2022-12-17T06:40:24.172Z,12.10
2022-12-17T06:43:14.006Z,12.06
2022-12-17T06:45:59.516Z,11.98
2022-12-17T06:48:45.102Z,11.98
2022-12-17T06:51:30.296Z,11.97
2022-12-17T06:54:15.980Z,11.95
2022-12-17T06:57:01.577Z,11.96
2022-12-17T06:59:47.162Z,11.94
2022-12-17T07:02:32.794Z,11.94
2022-12-17T07:05:18.108Z,11.92
2022-12-17T07:08:03.680Z,11.91
2022-12-17T07:10:49.271Z,11.96
2022-12-17T07:13:35.087Z,11.97
2022-12-17T07:16:21.116Z,11.91
2022-12-17T07:19:06.736Z,11.93
2022-12-17T07:21:52.388Z,11.88
2022-12-17T07:24:38.004Z,11.87
2022-12-17T07:27:23.611Z,11.64
2022-12-17T07:30:09.125Z,11.73
2022-12-17T07:32:54.775Z,11.68
2022-12-17T07:35:40.118Z,11.62
2022-12-17T07:38:25.645Z,11.63
2022-12-17T07:41:11.033Z,11.65
2022-12-17T07:43:56.662Z,11.66
2022-12-17T07:46:42.039Z,11.70
2022-12-17T07:49:27.620Z,11.69
2022-12-17T07:52:13.274Z,11.62
2022-12-17T07:54:58.790Z,11.63
2022-12-17T07:57:44.905Z,11.60
2022-12-17T08:00:30.959Z,11.61
2022-12-17T08:03:19.973Z,11.61
2022-12-17T08:06:05.598Z,11.57
2022-12-17T08:08:51.082Z,11.63
2022-12-17T08:11:36.564Z,11.61
2022-12-17T08:14:22.261Z,11.58
2022-12-17T08:17:07.433Z,11.65
2022-12-17T08:19:52.936Z,11.65
2022-12-17T08:22:38.322Z,11.66
2022-12-17T08:25:24.111Z,11.71
2022-12-17T08:28:33.899Z,11.67
2022-12-17T08:31:20.682Z,11.63
2022-12-17T08:34:08.085Z,11.74
2022-12-17T08:36:54.145Z,11.77
2022-12-17T08:39:39.675Z,11.80
2022-12-17T08:42:25.079Z,11.93
2022-12-17T08:45:10.576Z,12.18
2022-12-17T08:48:00.591Z,12.41
2022-12-17T08:50:49.513Z,12.41
2022-12-17T08:53:35.380Z,12.30
2022-12-17T08:56:20.973Z,12.30
2022-12-17T08:59:06.392Z,12.39
2022-12-17T09:01:51.895Z,12.44
2022-12-17T09:04:37.448Z,12.42
2022-12-17T09:07:22.858Z,12.50
2022-12-17T09:10:08.439Z,12.55
2022-12-17T09:12:53.896Z,12.61
2022-12-17T09:15:39.263Z,12.64
2022-12-17T09:18:24.906Z,12.73
2022-12-17T09:21:12.271Z,13.06
2022-12-17T09:23:57.749Z,13.56
2022-12-17T09:26:43.377Z,14.86
2022-12-17T09:29:28.711Z,15.36
2022-12-17T09:32:14.348Z,16.17
2022-12-17T09:34:59.879Z,17.01
2022-12-17T09:37:45.424Z,17.82
2022-12-17T09:40:41.347Z,18.10
2022-12-17T09:43:51.352Z,18.62
2022-12-17T09:46:36.429Z,19.78
2022-12-17T09:49:32.076Z,21.10
2022-12-17T09:52:17.604Z,21.26
2022-12-17T09:55:07.690Z,20.73
2022-12-17T09:57:55.513Z,21.47
2022-12-17T10:00:42.616Z,20.95
2022-12-17T10:03:38.030Z,19.82
2022-12-17T10:06:31.289Z,19.15
2022-12-17T10:09:22.345Z,18.15
2022-12-17T10:12:07.802Z,17.54
2022-12-17T10:14:53.114Z,17.14
2022-12-17T10:17:42.300Z,16.81
2022-12-17T10:20:33.341Z,16.55
2022-12-17T10:23:18.780Z,16.30
2022-12-17T10:26:13.466Z,16.04
2022-12-17T10:28:59.765Z,16.58
2022-12-17T10:31:48.781Z,18.39
2022-12-17T10:34:37.235Z,20.00
2022-12-17T10:37:24.119Z,21.71
2022-12-17T10:40:21.414Z,22.45
2022-12-17T10:43:06.801Z,21.83
2022-12-17T10:45:54.523Z,20.79
2022-12-17T10:48:47.608Z,20.10
2022-12-17T10:51:40.457Z,19.35
2022-12-17T10:54:50.168Z,18.57
2022-12-17T10:57:56.637Z,17.94
2022-12-17T11:00:50.442Z,17.63
2022-12-17T11:03:54.588Z,17.13
2022-12-17T11:06:46.103Z,17.34
2022-12-17T11:10:03.689Z,19.48
2022-12-17T11:13:13.790Z,22.04
2022-12-17T11:16:04.013Z,22.38
2022-12-17T11:18:58.731Z,21.31
2022-12-17T11:21:47.683Z,20.33
2022-12-17T11:24:42.184Z,20.00
2022-12-17T11:27:34.934Z,19.64
2022-12-17T11:30:20.280Z,19.22
2022-12-17T11:33:31.903Z,18.95
2022-12-17T11:36:31.228Z,18.72
2022-12-17T11:39:56.384Z,18.66
2022-12-17T11:43:03.647Z,18.89
2022-12-17T11:46:16.736Z,19.59
2022-12-17T11:49:22.567Z,20.46
2022-12-17T11:52:32.733Z,20.52
2022-12-17T11:55:27.856Z,20.20
2022-12-17T11:58:35.769Z,21.06
2022-12-17T12:01:27.298Z,22.96
2022-12-17T12:04:39.162Z,24.79
2022-12-17T12:07:47.415Z,26.18
2022-12-17T12:10:42.017Z,27.96
2022-12-17T12:13:36.163Z,29.41
2022-12-17T12:16:33.453Z,30.06
2022-12-17T12:19:18.331Z,28.43
2022-12-17T12:22:30.323Z,26.42
2022-12-17T12:25:37.239Z,24.89
2022-12-17T12:28:43.617Z,23.44
2022-12-17T12:31:31.750Z,22.40
2022-12-17T12:34:24.808Z,21.63
2022-12-17T12:37:11.293Z,20.98
2022-12-17T12:40:24.130Z,20.31
2022-12-17T12:43:23.236Z,19.73
2022-12-17T12:46:16.887Z,19.36
2022-12-17T12:49:15.061Z,18.73
2022-12-17T12:52:00.636Z,18.37
2022-12-17T12:55:11.337Z,17.87
2022-12-17T12:57:56.368Z,19.23
2022-12-17T13:00:58.385Z,20.57
2022-12-17T13:03:53.056Z,20.93
2022-12-17T13:06:38.273Z,21.57
2022-12-17T13:09:18.398Z,21.35
2022-12-17T13:11:46.193Z,20.60
2022-12-17T13:14:23.909Z,20.63
2022-12-17T13:17:21.695Z,21.81
2022-12-17T13:19:57.412Z,21.60
2022-12-17T13:22:24.897Z,21.50
2022-12-17T13:24:54.463Z,21.24
2022-12-17T13:27:36.468Z,20.45
2022-12-17T13:30:18.292Z,19.82
2022-12-17T13:32:51.098Z,19.52
2022-12-17T13:35:36.455Z,19.06
2022-12-17T13:38:24.671Z,18.87
2022-12-17T13:41:13.875Z,18.94
2022-12-17T13:43:40.715Z,18.93
2022-12-17T13:46:07.517Z,18.78
2022-12-17T13:48:34.528Z,18.70
2022-12-17T13:51:05.131Z,18.52
2022-12-17T13:53:35.570Z,18.56
2022-12-17T13:56:02.530Z,18.50
2022-12-17T13:58:33.192Z,18.56
2022-12-17T14:01:09.054Z,18.50
2022-12-17T14:04:04.219Z,18.43
2022-12-17T14:06:34.273Z,18.49
2022-12-17T14:09:02.719Z,18.42
2022-12-17T14:11:50.428Z,18.41
2022-12-17T14:14:28.981Z,18.28
2022-12-17T14:16:56.021Z,18.11
2022-12-17T14:19:24.477Z,18.05
2022-12-17T14:21:52.104Z,18.13
2022-12-17T14:24:23.404Z,18.18
2022-12-17T14:26:52.759Z,18.21
2022-12-17T14:29:28.208Z,17.97
2022-12-17T14:32:03.976Z,17.82
2022-12-17T14:34:42.044Z,17.54
2022-12-17T14:37:19.972Z,17.44
2022-12-17T14:39:48.478Z,17.36
2022-12-17T14:42:32.634Z,17.36
2022-12-17T14:45:21.390Z,17.30
2022-12-17T14:48:07.250Z,17.16
2022-12-17T14:50:36.710Z,17.12
2022-12-17T14:53:23.783Z,17.08
2022-12-17T14:55:57.414Z,17.11
2022-12-17T14:58:26.158Z,17.17
2022-12-17T15:01:00.402Z,17.15
2022-12-17T15:03:30.036Z,17.16
2022-12-17T15:06:08.561Z,17.13
2022-12-17T15:08:40.007Z,17.22
2022-12-17T15:11:07.800Z,17.28
2022-12-17T15:13:34.608Z,17.16
2022-12-17T15:16:01.348Z,16.91
2022-12-17T15:18:28.175Z,16.76
2022-12-17T15:20:55.066Z,16.64
2022-12-17T15:23:23.295Z,16.52
2022-12-17T15:25:52.337Z,16.44
2022-12-17T15:28:20.754Z,16.44
2022-12-17T15:30:48.386Z,16.43
2022-12-17T15:33:15.832Z,16.33
2022-12-17T15:35:43.545Z,16.34
2022-12-17T15:38:11.859Z,16.33
2022-12-17T15:40:39.485Z,16.29
2022-12-17T15:43:12.376Z,16.25
2022-12-17T15:45:50.344Z,16.16
2022-12-17T15:48:19.784Z,16.08
2022-12-17T15:50:47.240Z,16.02
2022-12-17T15:53:14.070Z,15.95
2022-12-17T15:55:41.170Z,15.83
2022-12-17T15:58:10.675Z,15.79
2022-12-17T16:00:37.775Z,15.66
2022-12-17T16:03:04.626Z,15.63
2022-12-17T16:05:31.598Z,15.57
2022-12-17T16:08:02.304Z,15.45
2022-12-17T16:10:29.952Z,15.50
2022-12-17T16:12:56.832Z,15.53
2022-12-17T16:15:23.540Z,15.49
2022-12-17T16:17:50.332Z,15.46
2022-12-17T16:20:17.479Z,15.46
2022-12-17T16:22:44.638Z,15.37
2022-12-17T16:25:11.478Z,15.40
2022-12-17T16:27:38.542Z,15.47
2022-12-17T16:30:05.962Z,15.41
2022-12-17T16:32:36.685Z,15.43
2022-12-17T16:35:04.949Z,15.36
2022-12-17T16:37:32.184Z,15.23
2022-12-17T16:40:00.461Z,15.27
2022-12-17T16:42:27.898Z,15.17
2022-12-17T16:44:54.750Z,15.07
2022-12-17T16:47:21.443Z,14.96
2022-12-17T16:49:50.963Z,14.95
2022-12-17T16:52:18.090Z,14.89
2022-12-17T16:54:44.791Z,14.87
2022-12-17T16:57:11.552Z,14.86
2022-12-17T16:59:38.346Z,14.80
2022-12-17T17:02:05.628Z,14.81
2022-12-17T17:04:32.538Z,14.69
2022-12-17T17:06:59.325Z,14.64
2022-12-17T17:09:26.400Z,14.52
2022-12-17T17:11:57.150Z,14.62
2022-12-17T17:14:24.322Z,14.55
2022-12-17T17:16:51.568Z,14.41
2022-12-17T17:19:21.446Z,14.45
2022-12-17T17:21:52.009Z,14.36
2022-12-17T17:24:22.117Z,14.32
2022-12-17T17:26:52.603Z,14.31
2022-12-17T17:29:19.343Z,14.02
2022-12-17T17:32:10.311Z,14.18
2022-12-17T17:34:32.988Z,14.13
2022-12-17T17:37:00.023Z,14.14
2022-12-17T17:39:27.427Z,14.15
2022-12-17T17:41:54.365Z,14.17
2022-12-17T17:44:21.135Z,14.06
2022-12-17T17:46:47.912Z,14.06
2022-12-17T17:49:14.913Z,14.04
2022-12-17T17:54:30.484Z,14.04
2022-12-17T17:56:57.197Z,13.97
2022-12-17T17:59:29.563Z,14.04
2022-12-17T18:01:58.272Z,13.99
2022-12-17T18:04:25.076Z,13.99
2022-12-17T18:07:23.590Z,13.93
2022-12-17T18:09:39.500Z,13.90
2022-12-17T18:12:26.413Z,13.77
2022-12-17T18:17:40.204Z,13.81
2022-12-17T18:20:07.626Z,13.66
2022-12-17T18:22:34.527Z,13.79
2022-12-17T18:25:01.267Z,13.76
2022-12-17T18:27:28.034Z,13.76
2022-12-17T18:29:55.833Z,13.76
2022-12-17T18:32:22.570Z,13.74
2022-12-17T18:34:49.332Z,13.78
2022-12-17T18:37:16.226Z,13.76
2022-12-17T18:39:43.015Z,13.75
2022-12-17T18:42:28.296Z,13.68
2022-12-17T18:44:55.016Z,13.66
2022-12-17T18:47:23.073Z,13.66
2022-12-17T18:49:49.929Z,13.68
2022-12-17T18:52:17.573Z,13.68
2022-12-17T18:54:45.125Z,13.68
2022-12-17T18:57:12.352Z,13.65
2022-12-17T18:59:40.984Z,13.62
2022-12-17T19:02:15.290Z,13.54
2022-12-17T19:04:42.208Z,13.55
2022-12-17T19:07:09.058Z,13.59
2022-12-17T19:09:36.756Z,13.48
2022-12-17T19:12:06.068Z,13.52
2022-12-17T19:14:33.488Z,13.47
2022-12-17T19:17:00.534Z,13.38
2022-12-17T19:19:27.455Z,13.37
2022-12-17T19:21:55.383Z,13.36
2022-12-17T19:24:23.573Z,13.30
2022-12-17T19:26:50.980Z,13.34
2022-12-17T19:29:19.087Z,13.31
2022-12-17T19:31:46.047Z,13.28
2022-12-17T19:34:15.204Z,13.23
2022-12-17T19:36:43.124Z,13.14
2022-12-17T19:39:13.187Z,12.98
2022-12-17T19:41:40.104Z,12.92
2022-12-17T19:44:11.572Z,12.92
2022-12-17T19:46:38.717Z,12.84
2022-12-17T19:49:05.925Z,12.77
2022-12-17T19:51:33.500Z,12.73
2022-12-17T19:54:06.408Z,12.71
2022-12-17T19:56:35.302Z,12.69
2022-12-17T19:59:07.946Z,12.66
2022-12-17T20:01:38.256Z,12.60
2022-12-17T20:04:06.211Z,12.63
2022-12-17T20:06:35.043Z,12.63
2022-12-17T20:09:04.475Z,12.61
2022-12-17T20:11:34.581Z,12.55
2022-12-17T20:14:21.793Z,12.51
2022-12-17T20:16:51.512Z,12.41
2022-12-17T20:19:21.154Z,12.35
2022-12-17T20:21:48.635Z,12.32
2022-12-17T20:24:16.808Z,12.34
2022-12-17T20:26:44.979Z,12.30
2022-12-17T20:29:12.151Z,12.32
2022-12-17T20:31:43.288Z,12.30
2022-12-17T20:34:14.852Z,12.28
2022-12-17T20:36:42.135Z,12.11
2022-12-17T20:39:09.526Z,12.16
2022-12-17T20:41:36.505Z,12.18
2022-12-17T20:44:05.914Z,12.15
2022-12-17T20:46:33.706Z,11.99
2022-12-17T20:49:01.085Z,11.97
2022-12-17T20:51:29.324Z,11.98
2022-12-17T20:53:58.606Z,11.97
2022-12-17T20:56:28.244Z,11.85
2022-12-17T20:59:00.599Z,11.84
2022-12-17T21:01:29.137Z,11.85
2022-12-17T21:03:57.760Z,11.87
2022-12-17T21:06:39.160Z,11.84
2022-12-17T21:09:06.563Z,11.88
2022-12-17T21:11:35.791Z,11.93
2022-12-17T21:14:11.463Z,11.74
2022-12-17T21:16:39.639Z,11.92
2022-12-17T21:19:08.411Z,11.86
2022-12-17T21:21:37.924Z,11.85
2022-12-17T21:24:06.189Z,11.88
2022-12-17T21:26:38.401Z,11.85
2022-12-17T21:29:07.272Z,11.79
2022-12-17T21:31:38.348Z,11.76
2022-12-17T21:34:07.029Z,11.82
2022-12-17T21:36:35.059Z,11.82
2022-12-17T21:39:09.401Z,11.79
2022-12-17T21:41:38.903Z,11.86
2022-12-17T21:44:09.148Z,11.90
2022-12-17T21:46:35.930Z,11.87
2022-12-17T21:49:04.979Z,11.90
2022-12-17T21:51:32.625Z,11.76
2022-12-17T21:54:02.870Z,11.77
2022-12-17T21:56:36.100Z,11.78
2022-12-17T21:59:02.906Z,11.77
2022-12-17T22:01:34.212Z,11.71
2022-12-17T22:04:03.583Z,11.65
2022-12-17T22:06:34.299Z,11.71
2022-12-17T22:09:20.101Z,11.69
2022-12-17T22:12:16.049Z,11.66
2022-12-17T22:14:43.021Z,11.55
2022-12-17T22:17:09.731Z,11.54
2022-12-17T22:19:36.587Z,11.61
2022-12-17T22:22:03.563Z,11.66
2022-12-17T22:24:30.291Z,11.62
2022-12-17T22:27:03.204Z,11.71
2022-12-17T22:29:48.416Z,11.71
2022-12-17T22:32:33.977Z,11.67
2022-12-17T22:36:34.832Z,11.62
2022-12-17T22:41:07.094Z,11.60
2022-12-17T22:44:28.691Z,11.59
2022-12-17T22:44:38.823Z,11.56
2022-12-17T22:46:17.178Z,11.54
2022-12-17T22:48:44.089Z,11.60
2022-12-17T22:51:12.276Z,11.36
2022-12-17T22:53:48.027Z,11.48
2022-12-17T22:56:27.786Z,11.44
2022-12-17T22:59:02.318Z,11.33
2022-12-17T23:01:29.428Z,11.27
2022-12-17T23:03:58.109Z,11.22
2022-12-17T23:06:25.907Z,11.24
2022-12-17T23:08:52.896Z,11.13
2022-12-17T23:11:22.991Z,11.20
2022-12-17T23:13:50.383Z,11.18
2022-12-17T23:16:17.945Z,11.21
2022-12-17T23:18:46.477Z,11.20
2022-12-17T23:21:17.436Z,11.17
2022-12-17T23:23:44.283Z,11.26
2022-12-17T23:26:15.235Z,11.21
2022-12-17T23:28:43.133Z,11.27
2022-12-17T23:31:16.690Z,11.34
2022-12-17T23:33:44.300Z,11.32
2022-12-17T23:36:16.788Z,11.26
2022-12-17T23:38:44.232Z,11.27
2022-12-17T23:41:19.373Z,11.19
2022-12-17T23:43:46.554Z,11.26
2022-12-17T23:46:13.803Z,11.26
2022-12-17T23:48:45.578Z,11.26
2022-12-17T23:51:14.672Z,11.15
2022-12-17T23:53:42.638Z,11.22
2022-12-17T23:56:20.109Z,11.32
2022-12-17T23:58:47.872Z,11.40
